TNF weather

Toussus-le-Noble Airport
Toussus-le-Noble, Île-de-France, France

Public forecast

Using degrees Celsius for public forecast. Weather courtesy of forecast.io.

Current aviation weather report (METAR) for Toussus-le-Noble Airport

Retrieved 2020/05/31 16:00 UTC (29 minutes ago):

LFPN 311600Z AUTO 09011KT 050V130 CAVOK 22/05 Q1018

Closest aviation forecast (TAF) to Toussus-le-Noble Airport

Closest forecast is Villacoublay-Vélizy (BA 107) Air Base, 3.6 nm (6.7 km) ENE. Retrieved 2020/05/31 15:00 UTC (1 hour ago):

TAF EGVN 311355Z 3115/0115 08008KT CAVOK TAF LFPV 311400Z 3115/0115 09008KT CAVOK TEMPO 3115/3118 07012G22KT